Time;durP1;ratioP1;P1;durP2;ratioP2;P2;SDS_P1;SDS_P2;PMS_P1;PMS_P2;Temp;Humidity;BMP_temperature;BMP_pressure;BME280_temperature;BME280_humidity;BME280_pressure;Samples;Min_cycle;Max_cycle;Signal;HPM_P1;HPM_P2
2022/06/08 00:02:16;;;;;;;2.67;1.73;;;17.50;62.60;;;;;;5107303;28;20601;-71
2022/06/08 00:04:43;;;;;;;1.85;1.50;;;17.40;62.90;;;;;;5108334;28;20391;-71
2022/06/08 00:07:10;;;;;;;1.75;1.52;;;18.30;59.20;;;;;;5094290;28;20052;-71
2022/06/08 00:09:36;;;;;;;2.47;1.60;;;18.60;63.30;;;;;;5087113;28;20048;-71
2022/06/08 00:12:05;;;;;;;2.70;1.70;;;18.30;63.20;;;;;;5087314;28;20131;-71
2022/06/08 00:14:32;;;;;;;2.75;1.67;;;18.30;63.40;;;;;;5087994;28;20052;-71
2022/06/08 00:16:59;;;;;;;3.33;1.70;;;18.50;63.60;;;;;;5087083;28;20139;-71
2022/06/08 00:19:25;;;;;;;2.08;1.50;;;19.40;64.20;;;;;;5087445;28;20135;-71
2022/06/08 00:21:52;;;;;;;1.58;1.42;;;19.40;64.60;;;;;;5087135;28;20058;-71
2022/06/08 00:24:19;;;;;;;2.08;1.40;;;16.90;63.90;;;;;;5092173;28;20096;-71
2022/06/08 00:26:46;;;;;;;2.15;1.60;;;18.30;59.10;;;;;;5107138;28;20146;-71
2022/06/08 00:29:14;;;;;;;2.03;1.48;;;19.10;63.30;;;;;;5107252;28;20047;-71
2022/06/08 00:31:41;;;;;;;2.03;1.60;;;18.20;64.60;;;;;;5107189;28;20051;-71
2022/06/08 00:34:08;;;;;;;2.20;1.48;;;18.30;63.70;;;;;;5106850;28;20482;-71
2022/06/08 00:36:34;;;;;;;1.80;1.48;;;18.30;63.60;;;;;;5106634;28;20070;-71
2022/06/08 00:39:01;;;;;;;1.67;1.35;;;18.20;59.10;;;;;;5106524;28;20048;-71
2022/06/08 00:41:38;;;;;;;1.50;1.40;;;18.20;63.60;;;;;;5089222;28;20062;-71
2022/06/08 00:44:07;;;;;;;1.58;1.30;;;18.20;59.00;;;;;;5091642;28;20079;-71
2022/06/08 00:46:35;;;;;;;1.90;1.42;;;18.20;63.70;;;;;;5092879;28;20128;-71
2022/06/08 00:49:06;;;;;;;2.05;1.70;;;18.40;63.90;;;;;;5110625;28;20072;-71
2022/06/08 00:51:33;;;;;;;1.85;1.42;;;18.80;64.60;;;;;;5111156;28;20062;-71
2022/06/08 00:54:00;;;;;;;2.22;1.73;;;18.10;64.40;;;;;;5111655;28;20764;-71
2022/06/08 00:56:28;;;;;;;2.47;1.70;;;18.00;63.00;;;;;;5103245;28;20052;-71
2022/06/08 00:58:55;;;;;;;2.00;1.52;;;18.20;63.50;;;;;;5090501;28;20052;-71
2022/06/08 01:01:22;;;;;;;1.70;1.38;;;18.10;59.00;;;;;;5093779;28;20247;-71
2022/06/08 01:03:50;;;;;;;1.90;1.50;;;17.10;63.00;;;;;;5110215;28;20074;-71
2022/06/08 01:06:19;;;;;;;2.05;1.50;;;18.10;63.90;;;;;;5111628;28;20765;-71
2022/06/08 01:08:46;;;;;;;1.60;1.40;;;18.20;63.70;;;;;;5110619;28;20545;-72
2022/06/08 01:11:18;;;;;;;2.20;1.65;;;18.00;63.00;;;;;;5110266;28;20146;-71
2022/06/08 01:13:45;;;;;;;1.77;1.40;;;18.10;63.00;;;;;;5096118;28;20138;-71
2022/06/08 01:16:12;;;;;;;1.67;1.42;;;17.70;63.30;;;;;;5091129;28;20536;-71
2022/06/08 01:18:39;;;;;;;3.03;1.50;;;17.90;62.90;;;;;;5091144;28;20534;-71
2022/06/08 01:21:39;;;;;;;2.15;1.52;;;18.00;63.80;;;;;;5089902;28;20083;-71
2022/06/08 01:24:09;;;;;;;1.80;1.50;;;17.00;63.10;;;;;;5073134;27;20139;-71
2022/06/08 01:26:42;;;;;;;1.58;1.40;;;18.10;59.00;;;;;;5108611;27;20562;-71
2022/06/08 01:29:12;;;;;;;2.30;1.67;;;18.00;63.80;;;;;;5091362;28;20075;-71
2022/06/08 01:31:48;;;;;;;1.88;1.60;;;17.60;63.00;;;;;;5089638;28;20051;-71
2022/06/08 01:34:16;;;;;;;3.75;1.70;;;18.10;58.90;;;;;;5090890;28;20055;-71
2022/06/08 01:36:59;;;;;;;2.20;1.70;;;18.10;58.90;;;;;;5089984;28;20082;-71
2022/06/08 01:39:32;;;;;;;1.50;1.40;;;18.00;62.90;;;;;;5090771;28;20135;-71
2022/06/08 01:42:13;;;;;;;1.50;1.30;;;18.00;58.90;;;;;;5109868;28;20398;-71
2022/06/08 01:47:34;;;;;;;2.47;1.40;;;18.30;64.20;;;;;;5108584;28;20091;-71
2022/06/08 01:50:02;;;;;;;1.38;1.27;;;18.00;58.90;;;;;;5108753;28;20421;-71
2022/06/08 01:52:31;;;;;;;2.40;1.65;;;18.00;58.90;;;;;;5108871;28;20477;-71
2022/06/08 01:55:07;;;;;;;2.53;1.60;;;18.20;63.90;;;;;;5109616;28;20087;-71
2022/06/08 01:57:55;;;;;;;1.65;1.45;;;18.10;63.20;;;;;;5092455;28;20048;-71
2022/06/08 02:00:23;;;;;;;1.88;1.42;;;17.90;64.30;;;;;;5089130;28;20048;-71
2022/06/08 02:02:55;;;;;;;2.05;1.85;;;18.50;64.60;;;;;;5099145;28;20536;-71
2022/06/08 02:05:23;;;;;;;1.85;1.55;;;18.50;63.00;;;;;;5089073;28;20060;-71
2022/06/08 02:07:51;;;;;;;1.88;1.40;;;17.90;63.00;;;;;;5089329;28;20058;-71
2022/06/08 02:10:22;;;;;;;1.70;1.60;;;18.00;63.10;;;;;;5088658;28;20040;-71
2022/06/08 02:12:51;;;;;;;2.22;1.40;;;17.90;63.30;;;;;;5089960;28;20101;-71
2022/06/08 02:15:19;;;;;;;2.08;1.40;;;18.50;62.60;;;;;;5090161;28;20051;-71
2022/06/08 02:17:48;;;;;;;1.98;1.50;;;17.90;63.30;;;;;;5089071;28;20064;-71
2022/06/08 02:20:17;;;;;;;1.70;1.50;;;18.90;63.40;;;;;;5088663;28;20075;-71
2022/06/08 02:22:46;;;;;;;1.70;1.40;;;17.60;62.70;;;;;;5089789;28;20087;-71
2022/06/08 02:25:14;;;;;;;1.75;1.50;;;17.10;62.90;;;;;;5099651;28;20130;-71
2022/06/08 02:27:44;;;;;;;2.35;1.60;;;18.00;63.00;;;;;;5110002;28;20123;-71
2022/06/08 02:30:13;;;;;;;1.60;1.50;;;17.80;63.00;;;;;;5108048;28;20059;-71
2022/06/08 02:35:27;;;;;;;1.60;1.30;;;17.70;62.30;;;;;;5109005;28;20047;-71
2022/06/08 02:37:55;;;;;;;1.42;1.27;;;18.00;63.10;;;;;;5108836;28;20086;-71
2022/06/08 02:40:24;;;;;;;1.77;1.48;;;17.90;58.80;;;;;;5108719;28;20681;-71
2022/06/08 02:42:54;;;;;;;1.52;1.40;;;17.50;63.70;;;;;;5108323;28;20075;-71
2022/06/08 02:45:22;;;;;;;2.25;1.50;;;18.10;62.50;;;;;;5108092;28;20126;-71
2022/06/08 02:47:51;;;;;;;1.75;1.60;;;18.00;62.80;;;;;;5108615;28;20410;-71
2022/06/08 02:50:19;;;;;;;1.40;1.30;;;17.90;58.80;;;;;;5109599;28;20134;-71
2022/06/08 02:52:48;;;;;;;3.17;1.67;;;17.60;62.90;;;;;;5108718;28;20509;-71
2022/06/08 02:55:18;;;;;;;1.58;1.25;;;18.00;60.10;;;;;;5108360;28;20474;-71
2022/06/08 02:57:49;;;;;;;2.55;1.48;;;17.90;58.80;;;;;;5108403;28;20078;-71
2022/06/08 03:00:19;;;;;;;1.33;1.20;;;18.00;63.10;;;;;;5108569;28;20054;-71
2022/06/08 03:02:48;;;;;;;1.48;1.20;;;17.90;63.20;;;;;;5094765;28;20052;-71
2022/06/08 03:05:16;;;;;;;1.50;1.40;;;17.90;58.30;;;;;;5106228;28;20054;-71
2022/06/08 03:07:45;;;;;;;1.95;1.40;;;18.00;64.00;;;;;;5108209;28;20657;-71
2022/06/08 03:10:13;;;;;;;1.48;1.33;;;17.60;63.60;;;;;;5108121;28;20055;-71
2022/06/08 03:12:41;;;;;;;1.75;1.40;;;17.80;63.40;;;;;;5109141;28;20050;-71
2022/06/08 03:15:10;;;;;;;1.90;1.50;;;18.00;63.50;;;;;;5107945;28;20186;-71
2022/06/08 03:17:38;;;;;;;1.25;1.15;;;17.80;58.70;;;;;;5106207;28;20799;-72
2022/06/08 03:20:07;;;;;;;1.77;1.40;;;18.60;63.80;;;;;;5087638;28;20136;-72
2022/06/08 03:22:34;;;;;;;1.42;1.30;;;18.10;63.00;;;;;;5087650;28;20131;-71
2022/06/08 03:25:01;;;;;;;1.70;1.40;;;17.80;63.10;;;;;;5097442;28;20058;-71
2022/06/08 03:27:27;;;;;;;2.40;1.60;;;17.80;58.70;;;;;;5109000;28;20052;-72
2022/06/08 03:29:54;;;;;;;3.55;1.60;;;18.60;63.20;;;;;;5109062;28;20047;-71
2022/06/08 03:32:21;;;;;;;2.20;1.48;;;17.90;64.00;;;;;;5108187;28;20512;-72
2022/06/08 03:34:49;;;;;;;1.58;1.45;;;17.80;58.80;;;;;;5106848;28;20130;-72
2022/06/08 03:37:15;;;;;;;1.92;1.45;;;17.80;58.70;;;;;;5108062;28;20142;-71
2022/06/08 03:39:42;;;;;;;1.73;1.30;;;17.80;58.70;;;;;;5107231;28;20051;-72
2022/06/08 03:42:09;;;;;;;1.50;1.30;;;18.20;63.30;;;;;;5107886;28;20572;-71
2022/06/08 03:44:37;;;;;;;1.80;1.58;;;17.80;64.00;;;;;;5108700;28;20494;-71
2022/06/08 03:47:06;;;;;;;2.70;1.70;;;18.10;63.30;;;;;;5107837;28;20064;-72
2022/06/08 03:49:34;;;;;;;2.28;1.70;;;17.60;62.70;;;;;;5107784;28;20400;-72
2022/06/08 03:52:04;;;;;;;1.55;1.30;;;17.80;58.70;;;;;;5107138;28;20077;-71
2022/06/08 03:54:33;;;;;;;1.50;1.40;;;17.80;58.70;;;;;;5107491;28;20051;-72
2022/06/08 03:57:03;;;;;;;1.52;1.40;;;17.80;58.60;;;;;;5107784;28;20549;-72
2022/06/08 03:59:29;;;;;;;2.00;1.48;;;17.80;63.70;;;;;;5107880;28;20051;-71
2022/06/08 04:01:56;;;;;;;1.45;1.35;;;17.80;64.00;;;;;;5106755;28;20058;-71
2022/06/08 04:04:23;;;;;;;2.47;1.60;;;17.90;58.70;;;;;;5107603;28;20051;-72
2022/06/08 04:06:50;;;;;;;1.95;1.52;;;17.80;58.60;;;;;;5107923;28;20777;-71
2022/06/08 04:09:19;;;;;;;1.92;1.58;;;18.80;63.40;;;;;;5106743;28;20483;-71
2022/06/08 04:11:47;;;;;;;1.60;1.35;;;17.90;58.70;;;;;;5107591;28;20143;-71
2022/06/08 04:14:13;;;;;;;2.20;1.60;;;17.90;58.70;;;;;;5107332;28;20059;-71
2022/06/08 04:16:40;;;;;;;1.77;1.50;;;17.80;64.10;;;;;;5108786;28;20134;-71
2022/06/08 04:19:07;;;;;;;1.65;1.42;;;18.40;64.00;;;;;;5111238;28;20071;-72
2022/06/08 04:21:33;;;;;;;1.73;1.45;;;17.30;62.80;;;;;;5111458;28;20058;-71
2022/06/08 04:24:01;;;;;;;1.60;1.50;;;17.70;62.90;;;;;;5109783;27;20050;-72
2022/06/08 04:26:29;;;;;;;2.13;1.60;;;17.70;62.70;;;;;;5131997;27;20051;-71
2022/06/08 04:28:56;;;;;;;1.55;1.40;;;17.80;62.70;;;;;;5131803;27;20465;-71
2022/06/08 04:31:22;;;;;;;2.33;1.70;;;17.70;62.60;;;;;;5132319;27;20075;-70
2022/06/08 04:33:53;;;;;;;2.00;1.58;;;17.90;58.60;;;;;;5112471;28;20079;-70
2022/06/08 04:36:20;;;;;;;2.95;1.70;;;17.80;62.50;;;;;;5111429;28;20058;-70
2022/06/08 04:38:46;;;;;;;1.90;1.63;;;17.90;62.80;;;;;;5111251;28;20076;-70
2022/06/08 04:41:13;;;;;;;2.28;1.77;;;18.20;63.90;;;;;;5099663;28;20538;-71
2022/06/08 04:43:41;;;;;;;1.83;1.50;;;17.90;63.10;;;;;;5090821;28;20060;-71
2022/06/08 04:46:12;;;;;;;2.65;1.60;;;17.90;58.50;;;;;;5102666;28;20048;-70
2022/06/08 04:48:38;;;;;;;2.70;1.80;;;17.90;63.10;;;;;;5101309;28;20093;-70
2022/06/08 04:51:07;;;;;;;2.50;1.80;;;17.80;63.60;;;;;;5101451;28;20048;-70
2022/06/08 04:53:34;;;;;;;2.38;1.90;;;17.90;58.50;;;;;;5100804;28;20509;-70
2022/06/08 04:56:01;;;;;;;1.92;1.65;;;17.90;62.90;;;;;;5099989;28;20135;-70
2022/06/08 04:58:28;;;;;;;1.92;1.67;;;17.20;62.00;;;;;;5103451;28;20130;-72
2022/06/08 05:00:56;;;;;;;1.90;1.50;;;17.90;58.50;;;;;;5112062;28;20126;-70
2022/06/08 05:03:23;;;;;;;1.73;1.48;;;18.00;62.80;;;;;;5091117;28;20047;-70
2022/06/08 05:05:49;;;;;;;1.80;1.60;;;18.00;58.60;;;;;;5096113;28;20134;-70
2022/06/08 05:08:17;;;;;;;1.92;1.73;;;17.80;62.40;;;;;;5090223;28;20136;-71
2022/06/08 05:10:44;;;;;;;1.70;1.60;;;18.10;63.50;;;;;;5100821;27;20074;-71
2022/06/08 05:13:11;;;;;;;1.73;1.58;;;17.90;62.70;;;;;;5105124;28;20458;-70
2022/06/08 05:15:39;;;;;;;2.15;1.60;;;18.10;64.30;;;;;;5111732;28;20047;-71
2022/06/08 05:18:08;;;;;;;2.00;1.67;;;18.10;63.80;;;;;;5111796;28;20127;-70
2022/06/08 05:20:35;;;;;;;2.10;1.60;;;18.10;58.40;;;;;;5110432;28;20616;-70
2022/06/08 05:23:02;;;;;;;2.70;1.70;;;18.80;62.90;;;;;;5111562;28;20048;-70
2022/06/08 05:25:30;;;;;;;1.90;1.50;;;18.40;62.30;;;;;;5110580;28;20135;-71
2022/06/08 05:27:57;;;;;;;1.88;1.55;;;18.20;58.30;;;;;;5110474;28;20048;-70
2022/06/08 05:30:25;;;;;;;2.15;1.80;;;18.10;62.80;;;;;;5101717;28;20056;-70
2022/06/08 05:32:51;;;;;;;3.45;1.60;;;18.30;62.80;;;;;;5089367;28;20143;-70
2022/06/08 05:35:20;;;;;;;1.88;1.52;;;18.60;62.10;;;;;;5089796;28;20079;-70
2022/06/08 05:37:48;;;;;;;1.73;1.45;;;17.70;62.80;;;;;;5089952;28;20639;-70
2022/06/08 05:40:14;;;;;;;2.22;1.65;;;18.30;63.20;;;;;;5091371;28;20562;-70
2022/06/08 05:42:41;;;;;;;1.70;1.52;;;18.50;63.10;;;;;;5089513;28;20136;-71
2022/06/08 05:45:10;;;;;;;1.95;1.75;;;17.90;62.00;;;;;;5101745;28;20501;-70
2022/06/08 05:47:36;;;;;;;1.92;1.60;;;18.50;63.00;;;;;;5089663;28;20148;-70
2022/06/08 05:50:03;;;;;;;1.70;1.50;;;17.90;62.50;;;;;;5089649;28;20119;-71
2022/06/08 05:52:31;;;;;;;3.05;1.60;;;18.30;62.70;;;;;;5089492;28;20052;-70
2022/06/08 05:54:59;;;;;;;1.90;1.70;;;18.00;62.50;;;;;;5097534;28;20907;-70
2022/06/08 05:57:25;;;;;;;1.73;1.45;;;19.00;64.00;;;;;;5104326;28;20402;-72
2022/06/08 05:59:52;;;;;;;2.28;1.60;;;18.40;58.00;;;;;;5109609;28;20052;-71
2022/06/08 06:02:19;;;;;;;2.10;1.60;;;18.30;62.40;;;;;;5095620;28;20133;-71
2022/06/08 06:04:46;;;;;;;2.00;1.60;;;18.50;58.00;;;;;;5088952;28;20118;-72
2022/06/08 06:07:13;;;;;;;3.35;1.73;;;17.90;62.40;;;;;;5088511;28;20135;-72
2022/06/08 06:09:41;;;;;;;4.95;2.00;;;18.60;62.50;;;;;;5096066;28;20044;-72
2022/06/08 06:12:09;;;;;;;4.50;1.92;;;16.40;61.70;;;;;;5096955;28;20123;-72
2022/06/08 06:14:36;;;;;;;2.40;1.90;;;17.80;62.00;;;;;;5088642;28;20135;-72
2022/06/08 06:17:02;;;;;;;2.92;2.00;;;19.40;62.60;;;;;;5095611;28;20079;-72
2022/06/08 06:19:29;;;;;;;4.15;2.00;;;18.70;62.30;;;;;;5109131;28;20090;-72
2022/06/08 06:21:56;;;;;;;3.65;1.70;;;18.80;63.30;;;;;;5109374;28;20139;-72
2022/06/08 06:24:23;;;;;;;2.95;1.90;;;18.70;57.90;;;;;;5113181;27;20057;-72
2022/06/08 06:26:52;;;;;;;3.00;1.70;;;19.00;63.40;;;;;;5109451;27;20131;-72
2022/06/08 06:29:19;;;;;;;2.53;1.92;;;18.80;62.00;;;;;;5098712;28;20055;-72
2022/06/08 06:31:48;;;;;;;3.45;2.00;;;19.70;63.40;;;;;;5096059;28;20123;-72
2022/06/08 06:34:16;;;;;;;2.65;1.83;;;18.80;62.20;;;;;;5096791;28;20079;-72
2022/06/08 06:36:43;;;;;;;3.70;1.70;;;18.80;57.60;;;;;;5091177;28;20573;-72
2022/06/08 06:39:09;;;;;;;2.35;1.85;;;18.90;62.00;;;;;;5088193;28;20521;-72
2022/06/08 06:41:36;;;;;;;7.97;2.65;;;19.10;62.20;;;;;;5088583;28;20547;-71
2022/06/08 06:44:05;;;;;;;2.10;1.90;;;19.30;62.60;;;;;;5087758;28;20131;-70
2022/06/08 06:46:32;;;;;;;2.58;1.80;;;18.70;62.00;;;;;;5088235;28;20134;-71
2022/06/08 06:48:59;;;;;;;4.82;1.90;;;19.10;62.60;;;;;;5089752;28;20131;-72
2022/06/08 06:51:25;;;;;;;3.35;2.00;;;20.50;63.90;;;;;;5096130;28;20406;-71
2022/06/08 06:53:52;;;;;;;3.75;2.17;;;19.30;62.10;;;;;;5106957;28;20504;-71
2022/06/08 06:56:19;;;;;;;2.22;1.80;;;19.30;57.20;;;;;;5107900;28;20079;-71
2022/06/08 06:58:48;;;;;;;3.42;1.92;;;19.00;61.60;;;;;;5106480;28;20468;-71
2022/06/08 07:01:16;;;;;;;2.25;1.80;;;19.40;61.70;;;;;;5106364;28;20048;-71
2022/06/08 07:03:44;;;;;;;4.97;1.92;;;19.70;62.90;;;;;;5106464;28;20134;-70
2022/06/08 07:06:10;;;;;;;2.70;1.80;;;20.50;62.20;;;;;;5106226;28;20417;-72
2022/06/08 07:08:37;;;;;;;4.32;1.90;;;19.80;62.70;;;;;;5087933;28;20585;-70
2022/06/08 07:13:49;;;;;;;4.30;2.10;;;19.90;61.60;;;;;;5090228;28;20534;-71
2022/06/08 07:16:17;;;;;;;4.55;2.20;;;19.80;57.00;;;;;;5090683;28;20040;-70
2022/06/08 07:18:43;;;;;;;2.92;1.80;;;19.90;56.90;;;;;;5091322;28;20080;-70
2022/06/08 07:21:10;;;;;;;3.78;2.00;;;20.10;61.50;;;;;;5098851;28;20156;-70
2022/06/08 07:23:37;;;;;;;6.18;2.20;;;19.80;61.50;;;;;;5099849;28;20683;-71
2022/06/08 07:26:04;;;;;;;4.35;2.15;;;20.00;56.60;;;;;;5101684;28;20062;-71
2022/06/08 07:28:31;;;;;;;2.80;2.10;;;20.10;56.60;;;;;;5104583;28;20052;-71
2022/06/08 07:30:58;;;;;;;4.78;1.90;;;21.10;61.60;;;;;;5110984;28;20504;-71
2022/06/08 07:33:26;;;;;;;3.22;2.03;;;20.20;60.60;;;;;;5111813;28;20044;-71
2022/06/08 07:35:54;;;;;;;3.25;1.90;;;20.20;56.50;;;;;;5110287;28;20150;-70
2022/06/08 07:38:21;;;;;;;2.40;1.90;;;20.30;56.40;;;;;;5110555;28;20070;-70
2022/06/08 07:40:47;;;;;;;3.20;2.10;;;20.10;61.10;;;;;;5093938;28;20052;-71
2022/06/08 07:43:14;;;;;;;2.50;2.10;;;20.30;60.80;;;;;;5089526;28;20540;-70
2022/06/08 07:45:41;;;;;;;4.25;2.03;;;21.40;60.80;;;;;;5090425;28;20138;-71
2022/06/08 07:50:54;;;;;;;2.50;1.55;;;20.60;60.60;;;;;;5092136;28;20051;-69
2022/06/08 07:53:20;;;;;;;2.60;1.67;;;20.50;56.10;;;;;;5094880;28;20142;-70
2022/06/08 07:55:47;;;;;;;3.97;2.00;;;20.50;56.20;;;;;;5094847;28;20044;-71
2022/06/08 07:58:14;;;;;;;2.30;1.80;;;20.50;60.20;;;;;;5100387;28;20113;-71
2022/06/08 08:00:43;;;;;;;3.38;2.03;;;17.90;59.50;;;;;;5113897;28;20118;-71
2022/06/08 08:03:10;;;;;;;2.20;1.80;;;20.50;56.00;;;;;;5112912;28;20056;-71
2022/06/08 08:05:37;;;;;;;3.20;1.90;;;20.70;56.10;;;;;;5115191;28;20065;-70
2022/06/08 08:08:06;;;;;;;3.15;1.80;;;20.70;56.10;;;;;;5114180;28;20131;-71
2022/06/08 08:10:32;;;;;;;3.20;1.80;;;20.50;60.60;;;;;;5112920;28;20048;-71
2022/06/08 08:12:59;;;;;;;2.25;1.83;;;20.70;56.00;;;;;;5114455;28;20044;-71
2022/06/08 08:15:26;;;;;;;2.35;1.83;;;20.90;59.40;;;;;;5113222;28;20135;-71
2022/06/08 08:17:53;;;;;;;2.55;1.73;;;20.80;60.20;;;;;;5112187;28;20188;-71
2022/06/08 08:20:20;;;;;;;2.85;1.60;;;21.00;56.10;;;;;;5111711;28;20132;-71
2022/06/08 08:22:47;;;;;;;3.33;1.67;;;21.00;60.80;;;;;;5111269;28;20055;-70
2022/06/08 08:25:15;;;;;;;6.72;2.90;;;20.80;55.90;;;;;;5107219;27;20450;-70
2022/06/08 08:27:43;;;;;;;1.77;1.63;;;20.90;55.90;;;;;;5100847;28;20036;-71
2022/06/08 08:30:11;;;;;;;3.17;1.65;;;19.80;59.70;;;;;;5086620;28;20055;-70
2022/06/08 08:32:37;;;;;;;2.92;1.95;;;20.90;60.90;;;;;;5094177;28;20609;-70
2022/06/08 08:35:05;;;;;;;1.90;1.60;;;20.90;55.90;;;;;;5103800;28;20048;-70
2022/06/08 08:37:31;;;;;;;2.33;1.85;;;19.80;59.60;;;;;;5093584;28;20595;-70
2022/06/08 08:39:58;;;;;;;2.47;1.80;;;20.90;55.80;;;;;;5103739;28;20413;-70
2022/06/08 08:42:26;;;;;;;3.05;1.70;;;21.00;60.00;;;;;;5113902;28;20086;-70
2022/06/08 08:44:55;;;;;;;2.53;1.60;;;21.00;60.10;;;;;;5112041;28;20078;-70
2022/06/08 08:47:28;;;;;;;2.13;1.70;;;21.00;60.00;;;;;;5109300;28;20130;-69
2022/06/08 08:49:56;;;;;;;2.10;1.80;;;21.20;59.90;;;;;;5096961;28;20055;-70
2022/06/08 08:52:31;;;;;;;2.38;1.90;;;20.60;59.30;;;;;;5102107;28;20043;-71
2022/06/08 08:54:59;;;;;;;3.80;1.80;;;20.70;60.50;;;;;;5101163;28;20043;-70
2022/06/08 08:57:31;;;;;;;2.28;1.75;;;21.00;60.80;;;;;;5096796;28;20048;-70
2022/06/08 08:59:58;;;;;;;2.10;1.52;;;21.10;61.00;;;;;;5091886;28;20056;-70
2022/06/08 09:05:13;;;;;;;2.90;1.75;;;21.30;55.80;;;;;;5065784;28;20078;-70
2022/06/08 09:07:40;;;;;;;2.10;1.63;;;21.00;59.60;;;;;;5090830;28;20123;-70
2022/06/08 09:10:08;;;;;;;2.00;1.70;;;20.90;60.00;;;;;;5092287;28;20127;-69
2022/06/08 09:12:36;;;;;;;2.65;2.08;;;21.10;55.70;;;;;;5090705;28;20052;-70
2022/06/08 09:15:03;;;;;;;3.60;1.60;;;21.10;55.70;;;;;;5110125;28;20704;-70
2022/06/08 09:17:34;;;;;;;2.00;1.50;;;21.10;55.70;;;;;;5112421;28;20100;-70
2022/06/08 09:20:01;;;;;;;5.30;2.00;;;21.20;60.50;;;;;;5112613;28;20056;-71
2022/06/08 09:22:28;;;;;;;2.80;1.63;;;21.20;55.90;;;;;;5095047;28;20097;-70
2022/06/08 09:24:57;;;;;;;2.60;1.90;;;21.90;60.00;;;;;;5110790;28;20090;-70
2022/06/08 09:27:25;;;;;;;2.97;1.80;;;21.30;55.90;;;;;;5114053;28;20479;-70
2022/06/08 09:29:56;;;;;;;2.75;1.70;;;21.20;60.50;;;;;;5114669;28;20079;-70
2022/06/08 09:32:26;;;;;;;3.70;1.90;;;21.30;56.00;;;;;;5102989;28;20048;-71
2022/06/08 09:34:54;;;;;;;6.03;2.17;;;21.30;56.00;;;;;;5092510;28;20426;-69
2022/06/08 09:37:24;;;;;;;5.10;1.77;;;21.30;60.30;;;;;;5093252;28;20086;-71
2022/06/08 09:39:51;;;;;;;5.72;1.90;;;21.30;59.70;;;;;;5092456;28;20056;-70
2022/06/08 09:42:25;;;;;;;6.07;2.15;;;21.30;56.10;;;;;;5093829;28;20131;-70
2022/06/08 09:44:57;;;;;;;4.82;2.00;;;21.30;56.10;;;;;;5092987;28;20115;-71
2022/06/08 09:53:06;;;;;;;3.30;1.80;;;21.30;56.00;;;;;;5065697;28;20457;-70
2022/06/08 09:55:47;;;;;;;5.38;1.60;;;21.00;59.00;;;;;;5093457;28;20051;-72
2022/06/08 09:58:24;;;;;;;4.82;1.70;;;20.40;60.20;;;;;;5093304;28;20087;-71
2022/06/08 10:00:56;;;;;;;3.25;1.50;;;21.40;60.30;;;;;;5093200;28;20490;-71
2022/06/08 10:03:35;;;;;;;3.90;1.70;;;21.00;60.80;;;;;;5090845;28;20131;-70
2022/06/08 10:06:07;;;;;;;3.53;1.60;;;21.40;60.10;;;;;;5096929;27;20486;-72
2022/06/08 10:08:40;;;;;;;5.95;1.83;;;21.40;61.40;;;;;;5118639;27;20110;-71
2022/06/08 10:11:34;;;;;;;3.65;1.60;;;21.40;56.30;;;;;;5109927;28;20510;-71
2022/06/08 10:13:59;;;;;;;2.40;1.50;;;22.30;61.10;;;;;;5109174;28;20493;-71
2022/06/08 10:16:29;;;;;;;3.30;1.73;;;21.30;60.30;;;;;;5110857;28;20071;-72
2022/06/08 10:18:56;;;;;;;3.75;1.70;;;21.30;59.90;;;;;;5111392;28;20091;-71
2022/06/08 10:21:24;;;;;;;3.42;1.90;;;21.30;56.30;;;;;;5111464;28;20135;-71
2022/06/08 10:23:54;;;;;;;2.50;1.80;;;20.30;60.50;;;;;;5108208;28;20093;-71
2022/06/08 10:26:24;;;;;;;4.03;1.70;;;21.20;60.50;;;;;;5130074;27;20065;-71
2022/06/08 10:28:52;;;;;;;2.75;1.50;;;21.20;56.30;;;;;;5130062;27;20047;-70
2022/06/08 10:31:22;;;;;;;2.35;1.70;;;21.30;60.80;;;;;;5131864;27;20043;-71
2022/06/08 10:33:53;;;;;;;3.22;1.60;;;21.50;56.50;;;;;;5131231;27;20051;-71
2022/06/08 10:36:20;;;;;;;2.78;1.58;;;21.30;60.90;;;;;;5132124;27;20059;-71
2022/06/08 10:38:47;;;;;;;2.70;1.45;;;21.20;56.30;;;;;;5133009;27;20124;-71
2022/06/08 10:44:42;;;;;;;2.65;1.42;;;21.20;56.40;;;;;;5089947;28;20052;-71
2022/06/08 10:47:16;;;;;;;;;;;21.20;56.40;;;;;;5077569;28;20052;-71
2022/06/08 10:49:52;;;;;;;1.67;1.40;;;21.00;60.60;;;;;;5089534;28;19924;-71
2022/06/08 10:52:28;;;;;;;3.72;1.83;;;22.30;60.90;;;;;;5089230;28;20127;-71
2022/06/08 10:55:11;;;;;;;2.40;1.38;;;21.10;60.60;;;;;;5089804;28;20108;-71
2022/06/08 10:57:49;;;;;;;2.10;1.45;;;21.60;56.70;;;;;;5092733;28;20093;-71
2022/06/08 11:00:47;;;;;;;2.88;1.45;;;21.30;56.50;;;;;;5089261;28;20085;-71
2022/06/08 11:03:54;;;;;;;1.98;1.73;;;21.40;56.40;;;;;;5108216;28;20131;-71
2022/06/08 11:06:58;;;;;;;2.80;1.40;;;21.50;61.50;;;;;;5089740;28;20047;-71
2022/06/08 11:09:48;;;;;;;3.20;1.50;;;21.40;56.30;;;;;;5095804;28;20070;-71
2022/06/08 11:12:34;;;;;;;2.25;1.30;;;21.30;60.00;;;;;;5089592;28;20547;-71
2022/06/08 11:15:04;;;;;;;3.75;1.40;;;21.40;60.10;;;;;;5093597;28;20062;-71
2022/06/08 11:17:33;;;;;;;1.27;1.17;;;21.40;61.30;;;;;;5096246;28;20568;-71
2022/06/08 11:20:04;;;;;;;2.65;1.40;;;21.40;57.00;;;;;;5090133;28;20134;-70
2022/06/08 11:22:34;;;;;;;3.10;1.50;;;21.30;60.00;;;;;;5097369;28;20134;-71
2022/06/08 11:25:05;;;;;;;2.60;1.60;;;21.40;56.40;;;;;;5106382;28;20058;-71
2022/06/08 11:27:32;;;;;;;1.98;1.40;;;21.40;56.40;;;;;;5109182;28;20085;-71
2022/06/08 11:29:59;;;;;;;2.75;1.50;;;21.40;56.40;;;;;;5100058;28;20534;-71
2022/06/08 11:32:55;;;;;;;3.33;1.40;;;20.80;60.50;;;;;;5093821;28;20050;-71
2022/06/08 11:35:46;;;;;;;1.90;1.40;;;21.70;59.30;;;;;;5088869;28;20056;-71
2022/06/08 11:38:17;;;;;;;2.05;1.50;;;21.40;56.40;;;;;;5089843;28;20100;-71
2022/06/08 11:40:45;;;;;;;1.70;1.50;;;21.40;56.40;;;;;;5100770;28;20093;-71
2022/06/08 11:43:35;;;;;;;2.05;1.58;;;21.50;56.40;;;;;;5099468;28;20060;-71
2022/06/08 11:46:01;;;;;;;2.92;1.40;;;21.50;56.40;;;;;;5096241;28;20138;-71
2022/06/08 11:48:29;;;;;;;1.90;1.40;;;21.50;56.40;;;;;;5090816;28;20470;-71
2022/06/08 11:50:56;;;;;;;1.95;1.40;;;21.50;56.50;;;;;;5088727;28;20059;-71
2022/06/08 11:53:26;;;;;;;3.10;1.30;;;21.50;56.40;;;;;;5088647;28;20107;-70
2022/06/08 11:55:58;;;;;;;2.35;1.50;;;21.60;60.80;;;;;;5090625;28;20498;-70
2022/06/08 11:58:27;;;;;;;1.80;1.58;;;21.10;59.90;;;;;;5088536;28;20512;-71
2022/06/08 12:00:57;;;;;;;1.80;1.40;;;21.60;59.90;;;;;;5073767;28;20078;-71
2022/06/08 12:03:27;;;;;;;1.77;1.30;;;22.20;60.50;;;;;;5104989;28;20472;-71
2022/06/08 12:06:03;;;;;;;2.20;1.50;;;21.60;56.50;;;;;;5090287;28;20514;-71
2022/06/08 12:08:33;;;;;;;1.75;1.40;;;23.00;61.90;;;;;;5090238;28;20052;-70
2022/06/08 12:11:02;;;;;;;1.80;1.30;;;21.50;60.20;;;;;;5091723;28;20151;-71
2022/06/08 12:13:29;;;;;;;4.25;1.40;;;20.70;60.00;;;;;;5089638;28;20131;-71
2022/06/08 12:15:56;;;;;;;2.45;1.45;;;21.60;56.30;;;;;;5089329;28;20455;-71
2022/06/08 12:18:38;;;;;;;4.15;1.20;;;21.70;60.40;;;;;;5089988;28;20083;-71
2022/06/08 12:21:20;;;;;;;1.77;1.40;;;20.60;59.70;;;;;;5091317;28;20064;-71
2022/06/08 12:23:57;;;;;;;2.05;1.23;;;21.80;56.50;;;;;;5089651;28;20056;-71
2022/06/08 12:26:27;;;;;;;2.10;1.40;;;21.60;56.30;;;;;;5090022;28;20056;-70
2022/06/08 12:29:03;;;;;;;2.00;1.40;;;21.60;56.40;;;;;;5091070;28;20548;-70
2022/06/08 12:31:32;;;;;;;1.92;1.35;;;21.60;60.80;;;;;;5089884;28;20048;-71
2022/06/08 12:34:19;;;;;;;1.75;1.35;;;21.70;61.20;;;;;;5091165;28;20468;-71
2022/06/08 12:36:45;;;;;;;1.35;1.20;;;22.10;60.00;;;;;;5090972;28;20473;-71
2022/06/08 12:39:14;;;;;;;2.55;1.40;;;21.60;56.30;;;;;;5094471;28;20119;-71
2022/06/08 12:41:44;;;;;;;1.73;1.30;;;21.60;56.30;;;;;;5094038;28;20081;-71
2022/06/08 12:44:17;;;;;;;1.60;1.40;;;22.70;60.70;;;;;;5093364;28;20413;-71
2022/06/08 12:46:49;;;;;;;2.20;1.30;;;21.70;56.40;;;;;;5094937;28;20048;-71
2022/06/08 12:49:18;;;;;;;1.60;1.30;;;22.20;60.40;;;;;;5093913;28;20131;-71
2022/06/08 12:51:55;;;;;;;1.50;1.30;;;21.70;60.10;;;;;;5093399;28;20490;-70
2022/06/08 12:54:24;;;;;;;1.20;1.08;;;21.70;56.40;;;;;;5104066;28;20055;-71
2022/06/08 12:56:54;;;;;;;1.90;1.35;;;21.70;61.00;;;;;;5113221;28;20621;-71
2022/06/08 12:59:21;;;;;;;1.60;1.17;;;21.60;56.40;;;;;;5113000;28;20055;-70
2022/06/08 13:01:48;;;;;;;1.75;1.20;;;21.60;56.30;;;;;;5114279;28;20277;-71
2022/06/08 13:04:16;;;;;;;2.05;1.40;;;22.80;61.70;;;;;;5112909;28;20154;-71
2022/06/08 13:06:43;;;;;;;2.17;1.27;;;21.60;56.50;;;;;;5114207;28;20544;-71
2022/06/08 13:09:12;;;;;;;1.52;1.20;;;21.50;56.50;;;;;;5112749;28;20062;-71
2022/06/08 13:11:39;;;;;;;1.35;1.25;;;21.80;56.70;;;;;;5096338;28;20048;-71
2022/06/08 13:14:13;;;;;;;2.33;1.33;;;21.50;56.60;;;;;;5094366;28;20048;-71
2022/06/08 13:16:39;;;;;;;2.90;1.35;;;22.20;60.50;;;;;;5093932;28;20095;-70
2022/06/08 13:19:06;;;;;;;1.20;1.10;;;21.30;60.80;;;;;;5093101;28;20482;-71
2022/06/08 13:21:33;;;;;;;1.73;1.20;;;21.20;60.70;;;;;;5094039;28;20086;-71
2022/06/08 13:24:00;;;;;;;1.60;1.20;;;21.30;60.80;;;;;;5096246;27;20079;-70